createdAt,value
2022-11-06T00:00:48.811Z,2.33
2022-11-06T00:03:18.714Z,2.12
2022-11-06T00:06:04.837Z,1.87
2022-11-06T00:08:34.807Z,2.13
2022-11-06T00:11:09.066Z,2.09
2022-11-06T00:13:37.755Z,2.00
2022-11-06T00:16:07.156Z,2.07
2022-11-06T00:18:38.267Z,2.05
2022-11-06T00:21:11.110Z,2.12
2022-11-06T00:23:40.219Z,2.16
2022-11-06T00:26:09.326Z,2.39
2022-11-06T00:28:38.343Z,2.23
2022-11-06T00:31:08.065Z,2.59
2022-11-06T00:33:38.212Z,2.71
2022-11-06T00:36:08.490Z,3.00
2022-11-06T00:38:37.575Z,2.72
2022-11-06T00:41:07.433Z,2.70
2022-11-06T00:43:36.953Z,2.54
2022-11-06T00:46:06.905Z,2.06
2022-11-06T00:48:35.833Z,1.89
2022-11-06T00:51:07.042Z,2.36
2022-11-06T00:53:36.084Z,2.57
2022-11-06T00:56:08.905Z,2.89
2022-11-06T00:58:38.633Z,2.71
2022-11-06T01:01:08.788Z,2.33
2022-11-06T01:03:37.443Z,2.10
2022-11-06T01:06:09.797Z,1.78
2022-11-06T01:08:38.536Z,1.84
2022-11-06T01:11:07.797Z,1.93
2022-11-06T01:13:36.614Z,1.56
2022-11-06T01:16:07.229Z,2.03
2022-11-06T01:18:36.711Z,1.95
2022-11-06T01:21:08.635Z,2.28
2022-11-06T01:23:37.476Z,2.21
2022-11-06T01:26:06.690Z,2.40
2022-11-06T01:28:35.991Z,1.95
2022-11-06T01:31:05.191Z,1.86
2022-11-06T01:33:33.710Z,1.87
2022-11-06T01:36:02.354Z,2.12
2022-11-06T01:38:32.565Z,1.92
2022-11-06T01:41:01.114Z,2.02
2022-11-06T01:43:49.180Z,2.17
2022-11-06T01:46:18.920Z,1.88
2022-11-06T01:48:52.974Z,2.04
2022-11-06T01:51:23.382Z,2.08
2022-11-06T01:53:54.275Z,2.56
2022-11-06T01:56:24.331Z,2.67
2022-11-06T01:58:55.341Z,2.34
2022-11-06T02:01:24.956Z,2.13
2022-11-06T02:04:00.545Z,2.21
2022-11-06T02:06:29.907Z,2.41
2022-11-06T02:09:00.395Z,2.33
2022-11-06T02:11:29.687Z,2.40
2022-11-06T02:14:07.465Z,2.33
2022-11-06T02:16:43.185Z,2.32
2022-11-06T02:19:32.443Z,2.39
2022-11-06T02:22:25.678Z,2.23
2022-11-06T02:25:08.273Z,2.35
2022-11-06T02:27:38.663Z,2.49
2022-11-06T02:30:09.645Z,2.26
2022-11-06T02:32:43.041Z,2.12
2022-11-06T02:35:19.801Z,2.33
2022-11-06T02:37:50.272Z,2.51
2022-11-06T02:40:20.512Z,2.22
2022-11-06T02:42:54.561Z,2.10
2022-11-06T02:45:25.562Z,2.42
2022-11-06T02:47:56.679Z,2.09
2022-11-06T02:50:30.587Z,2.19
2022-11-06T02:53:03.754Z,2.20
2022-11-06T02:55:36.965Z,2.27
2022-11-06T02:58:10.748Z,2.18
2022-11-06T03:00:43.405Z,2.39
2022-11-06T03:03:19.103Z,2.22
2022-11-06T03:05:54.532Z,2.34
2022-11-06T03:08:29.544Z,2.33
2022-11-06T03:11:06.913Z,2.23
2022-11-06T03:13:48.030Z,2.06
2022-11-06T03:16:27.726Z,2.00
2022-11-06T03:19:03.831Z,2.33
2022-11-06T03:21:39.570Z,1.89
2022-11-06T03:24:16.078Z,1.84
2022-11-06T03:26:49.038Z,1.86
2022-11-06T03:29:24.248Z,1.61
2022-11-06T03:31:57.023Z,1.70
2022-11-06T03:34:31.413Z,2.21
2022-11-06T03:37:07.128Z,2.35
2022-11-06T03:39:41.446Z,2.17
2022-11-06T03:42:14.602Z,2.12
2022-11-06T03:44:48.068Z,2.05
2022-11-06T03:47:23.544Z,2.12
2022-11-06T03:49:55.455Z,2.33
2022-11-06T03:52:30.577Z,2.03
2022-11-06T03:55:03.124Z,2.17
2022-11-06T03:57:39.128Z,2.48
2022-11-06T04:00:10.940Z,2.08
2022-11-06T04:02:50.020Z,1.79
2022-11-06T04:05:23.082Z,1.72
2022-11-06T04:08:14.166Z,1.86
2022-11-06T04:11:20.379Z,1.96
2022-11-06T04:14:02.007Z,2.36
2022-11-06T04:16:35.401Z,2.23
2022-11-06T04:19:04.022Z,2.71
2022-11-06T04:21:40.917Z,2.68
2022-11-06T04:24:42.403Z,2.21
2022-11-06T04:27:27.959Z,2.22
2022-11-06T04:30:05.349Z,2.31
2022-11-06T04:32:49.587Z,1.77
2022-11-06T04:35:28.645Z,2.04
2022-11-06T04:38:04.099Z,1.78
2022-11-06T04:40:46.614Z,1.92
2022-11-06T04:43:20.769Z,1.58
2022-11-06T04:45:53.293Z,1.80
2022-11-06T04:48:25.338Z,1.29
2022-11-06T04:50:56.906Z,1.43
2022-11-06T04:53:27.033Z,1.45
2022-11-06T04:55:57.614Z,1.84
2022-11-06T04:58:26.020Z,1.67
2022-11-06T05:00:54.608Z,1.33
2022-11-06T05:03:24.634Z,1.57
2022-11-06T05:05:53.214Z,1.64
2022-11-06T05:08:22.374Z,1.58
2022-11-06T05:10:50.868Z,1.62
2022-11-06T05:13:19.388Z,1.42
2022-11-06T05:15:49.461Z,1.58
2022-11-06T05:18:18.012Z,1.76
2022-11-06T05:20:47.873Z,1.57
2022-11-06T05:23:15.775Z,1.48
2022-11-06T05:25:44.504Z,1.64
2022-11-06T05:28:12.845Z,2.16
2022-11-06T05:30:41.326Z,1.44
2022-11-06T05:33:12.685Z,1.39
2022-11-06T05:35:41.251Z,1.63
2022-11-06T05:38:20.243Z,1.50
2022-11-06T05:40:48.746Z,1.42
2022-11-06T05:43:17.304Z,1.92
2022-11-06T05:45:47.575Z,2.12
2022-11-06T05:48:16.306Z,2.02
2022-11-06T05:50:44.618Z,2.44
2022-11-06T05:53:17.107Z,2.09
2022-11-06T05:55:48.322Z,2.41
2022-11-06T05:58:18.020Z,1.91
2022-11-06T06:00:46.723Z,1.84
2022-11-06T06:03:15.319Z,1.74
2022-11-06T06:05:49.219Z,2.25
2022-11-06T06:08:26.704Z,1.92
2022-11-06T06:11:01.383Z,1.70
2022-11-06T06:13:30.024Z,1.94
2022-11-06T06:16:02.623Z,2.26
2022-11-06T06:18:31.585Z,1.95
2022-11-06T06:21:00.465Z,1.85
2022-11-06T06:23:29.060Z,1.46
2022-11-06T06:25:59.583Z,2.22
2022-11-06T06:28:28.518Z,2.36
2022-11-06T06:31:01.196Z,1.50
2022-11-06T06:33:30.468Z,1.79
2022-11-06T06:35:59.362Z,2.11
2022-11-06T06:38:27.869Z,2.08
2022-11-06T06:40:56.321Z,2.21
2022-11-06T06:43:28.303Z,2.08
2022-11-06T06:46:04.997Z,2.09
2022-11-06T06:48:41.478Z,2.04
2022-11-06T06:51:10.480Z,1.88
2022-11-06T06:53:39.230Z,1.73
2022-11-06T06:56:11.912Z,1.58
2022-11-06T06:58:43.202Z,1.74
2022-11-06T07:01:15.521Z,2.16
2022-11-06T07:03:47.207Z,2.44
2022-11-06T07:06:45.864Z,2.66
2022-11-06T07:09:14.586Z,2.74
2022-11-06T07:11:43.106Z,2.22
2022-11-06T07:14:13.152Z,2.40
2022-11-06T07:16:44.031Z,2.24
2022-11-06T07:19:12.878Z,2.90
2022-11-06T07:21:43.699Z,1.91
2022-11-06T07:24:12.140Z,2.76
2022-11-06T07:26:41.715Z,2.50
2022-11-06T07:29:10.206Z,2.15
2022-11-06T07:31:40.223Z,2.72
2022-11-06T07:34:11.419Z,2.38
2022-11-06T07:36:40.627Z,2.49
2022-11-06T07:39:09.212Z,2.19
2022-11-06T07:41:38.514Z,2.43
2022-11-06T07:44:07.248Z,2.62
2022-11-06T07:46:35.939Z,2.79
2022-11-06T07:49:09.141Z,1.79
2022-11-06T07:51:38.067Z,2.20
2022-11-06T07:54:10.287Z,2.09
2022-11-06T07:58:43.070Z,3.56
2022-11-06T08:00:55.711Z,2.38
2022-11-06T08:03:35.575Z,1.82
2022-11-06T08:06:06.656Z,2.39
2022-11-06T08:13:41.965Z,2.21
2022-11-06T08:16:13.530Z,2.28
2022-11-06T08:18:43.122Z,1.55
2022-11-06T08:21:33.759Z,2.04
2022-11-06T08:24:35.418Z,2.11
2022-11-06T08:27:22.576Z,1.97
2022-11-06T08:29:51.441Z,2.18
2022-11-06T08:32:20.181Z,2.49
2022-11-06T08:34:51.522Z,1.95
2022-11-06T08:37:39.282Z,1.93
2022-11-06T08:40:09.495Z,1.92
2022-11-06T08:42:41.400Z,2.15
2022-11-06T08:45:11.313Z,1.83
2022-11-06T08:47:40.230Z,2.64
2022-11-06T08:50:09.610Z,2.72
2022-11-06T08:52:41.450Z,2.93
2022-11-06T08:55:10.973Z,2.70
2022-11-06T08:57:41.177Z,2.47
2022-11-06T09:00:13.358Z,2.41
2022-11-06T09:02:44.243Z,2.09
2022-11-06T09:05:24.215Z,2.68
2022-11-06T09:07:55.048Z,2.83
2022-11-06T09:10:28.433Z,2.36
2022-11-06T09:13:57.633Z,3.12
2022-11-06T09:20:17.038Z,3.47
2022-11-06T09:22:46.744Z,2.64
2022-11-06T09:25:20.000Z,2.09
2022-11-06T09:27:58.892Z,2.55
2022-11-06T09:30:31.972Z,2.07
2022-11-06T09:33:09.200Z,2.51
2022-11-06T09:35:41.263Z,1.95
2022-11-06T09:38:13.209Z,2.21
2022-11-06T09:40:48.538Z,2.20
2022-11-06T09:43:58.152Z,3.06
2022-11-06T09:46:25.564Z,2.32
2022-11-06T09:49:00.425Z,2.67
2022-11-06T09:51:39.451Z,2.65
2022-11-06T09:54:20.442Z,2.32
2022-11-06T09:56:56.842Z,2.35
2022-11-06T09:59:26.398Z,3.23
2022-11-06T10:02:02.113Z,1.63
2022-11-06T10:04:42.183Z,1.72
2022-11-06T10:07:25.098Z,2.22
2022-11-06T10:10:20.868Z,2.47
2022-11-06T10:13:45.358Z,1.95
2022-11-06T10:16:24.840Z,1.97
2022-11-06T10:19:03.673Z,2.52
2022-11-06T10:21:44.773Z,2.19
2022-11-06T10:24:25.191Z,2.63
2022-11-06T10:26:57.676Z,3.66
2022-11-06T10:29:59.628Z,2.82
2022-11-06T10:32:50.751Z,2.84
2022-11-06T10:35:27.733Z,3.03
2022-11-06T10:38:02.678Z,2.24
2022-11-06T10:40:38.125Z,1.88
2022-11-06T10:43:19.471Z,3.16
2022-11-06T10:45:53.979Z,2.68
2022-11-06T10:48:30.853Z,2.92
2022-11-06T10:51:20.224Z,2.95
2022-11-06T10:53:59.773Z,1.92
2022-11-06T10:56:47.396Z,1.92
2022-11-06T10:59:17.512Z,1.92
2022-11-06T11:01:50.114Z,1.74
2022-11-06T11:04:18.951Z,2.18
2022-11-06T11:06:47.398Z,1.83
2022-11-06T11:09:32.931Z,2.23
2022-11-06T11:12:02.562Z,2.80
2022-11-06T11:14:33.659Z,2.57
2022-11-06T11:17:11.977Z,1.98
2022-11-06T11:19:45.591Z,2.48
2022-11-06T11:22:21.637Z,2.26
2022-11-06T11:25:06.008Z,2.36
2022-11-06T11:27:54.649Z,2.42
2022-11-06T11:30:26.491Z,3.43
2022-11-06T11:33:04.973Z,2.71
2022-11-06T11:35:35.808Z,3.13
2022-11-06T11:38:19.148Z,2.68
2022-11-06T11:41:39.833Z,2.20
2022-11-06T11:44:11.611Z,1.91
2022-11-06T11:46:51.685Z,2.14
2022-11-06T11:49:54.800Z,2.71
2022-11-06T11:52:54.862Z,2.54
2022-11-06T11:55:33.384Z,2.62
2022-11-06T11:58:28.166Z,2.04
2022-11-06T12:01:18.846Z,1.98
2022-11-06T12:04:00.223Z,2.16
2022-11-06T12:06:33.914Z,2.16
2022-11-06T12:09:16.889Z,2.14
2022-11-06T12:11:48.830Z,2.43
2022-11-06T12:14:40.931Z,2.53
2022-11-06T12:17:22.897Z,2.30
2022-11-06T12:22:51.785Z,2.53
2022-11-06T12:25:35.425Z,1.57
2022-11-06T12:28:16.349Z,1.94
2022-11-06T12:30:55.601Z,2.63
2022-11-06T12:33:59.641Z,2.04
2022-11-06T12:36:43.072Z,1.92
2022-11-06T12:39:32.845Z,2.68
2022-11-06T12:42:21.180Z,2.57
2022-11-06T12:44:58.105Z,2.54
2022-11-06T12:48:01.145Z,2.88
2022-11-06T12:51:09.165Z,3.18
2022-11-06T12:53:53.882Z,2.71
2022-11-06T12:56:42.141Z,3.13
2022-11-06T12:59:33.184Z,3.22
2022-11-06T13:02:21.203Z,3.23
2022-11-06T13:05:11.100Z,1.95
2022-11-06T13:08:13.938Z,2.12
2022-11-06T13:11:01.362Z,2.17
2022-11-06T13:14:06.675Z,2.05
2022-11-06T13:17:22.818Z,1.75
2022-11-06T13:19:59.825Z,1.93
2022-11-06T13:23:08.222Z,1.66
2022-11-06T13:25:52.608Z,2.04
2022-11-06T13:28:51.041Z,1.38
2022-11-06T13:32:03.379Z,1.80
2022-11-06T13:40:08.865Z,1.52
2022-11-06T13:42:59.018Z,1.27
2022-11-06T13:45:31.653Z,1.58
2022-11-06T13:48:26.271Z,2.24
2022-11-06T13:51:01.651Z,1.58
2022-11-06T13:53:38.687Z,1.73
2022-11-06T13:56:39.028Z,1.49
2022-11-06T13:59:34.320Z,1.51
2022-11-06T14:02:42.041Z,1.68
2022-11-06T14:05:41.995Z,1.76
2022-11-06T14:08:19.602Z,1.62
2022-11-06T14:11:13.509Z,2.23
2022-11-06T14:13:55.592Z,2.05
2022-11-06T14:16:30.052Z,1.97
2022-11-06T14:19:06.588Z,1.97
2022-11-06T14:21:56.046Z,2.39
2022-11-06T14:24:46.157Z,1.47
2022-11-06T14:27:53.482Z,1.73
2022-11-06T14:33:59.653Z,2.11
2022-11-06T14:36:31.296Z,2.21
2022-11-06T14:39:05.319Z,1.97
2022-11-06T14:42:14.276Z,2.23
2022-11-06T14:48:00.879Z,1.79
2022-11-06T14:50:37.236Z,1.77
2022-11-06T14:53:50.809Z,1.68
2022-11-06T14:56:26.036Z,1.56
2022-11-06T14:58:57.474Z,1.34
2022-11-06T15:01:30.803Z,1.85
2022-11-06T15:04:08.499Z,1.51
2022-11-06T15:10:59.879Z,1.55
2022-11-06T15:17:21.927Z,1.01
2022-11-06T15:21:03.495Z,1.48
2022-11-06T15:23:36.073Z,1.94
2022-11-06T15:26:23.822Z,2.46
2022-11-06T15:29:31.921Z,1.63
2022-11-06T15:32:12.650Z,1.98
2022-11-06T15:35:08.056Z,1.34
2022-11-06T15:37:42.228Z,1.44
2022-11-06T15:40:26.295Z,2.35
2022-11-06T15:42:56.811Z,1.61
2022-11-06T15:45:29.176Z,2.20
2022-11-06T15:48:23.441Z,2.56
2022-11-06T15:50:52.145Z,1.79
2022-11-06T15:53:23.924Z,2.42
2022-11-06T15:55:56.158Z,2.05
2022-11-06T15:58:31.515Z,2.09
2022-11-06T16:01:03.869Z,1.76
2022-11-06T16:03:47.512Z,1.36
2022-11-06T16:06:36.044Z,1.38
2022-11-06T16:09:05.905Z,1.98
2022-11-06T16:11:41.462Z,1.74
2022-11-06T16:14:14.228Z,1.80
2022-11-06T16:16:51.047Z,2.17
2022-11-06T16:19:42.234Z,2.15
2022-11-06T16:22:20.609Z,2.25
2022-11-06T16:24:54.322Z,1.63
2022-11-06T16:27:24.783Z,1.70
2022-11-06T16:29:56.211Z,2.11
2022-11-06T16:32:30.317Z,1.32
2022-11-06T16:35:00.315Z,1.73
2022-11-06T16:37:40.373Z,2.37
2022-11-06T16:40:49.524Z,2.50
2022-11-06T16:43:20.235Z,2.06
2022-11-06T16:45:57.393Z,2.24
2022-11-06T16:48:37.467Z,2.07
2022-11-06T16:51:11.570Z,1.91
2022-11-06T16:53:59.874Z,1.66
2022-11-06T16:56:47.596Z,1.78
2022-11-06T16:59:32.305Z,1.73
2022-11-06T17:02:55.080Z,1.48
2022-11-06T17:06:43.764Z,1.42
2022-11-06T17:09:30.331Z,1.56
2022-11-06T17:12:06.705Z,1.93
2022-11-06T17:15:40.062Z,1.66
2022-11-06T17:18:13.015Z,2.13
2022-11-06T17:20:47.639Z,1.54
2022-11-06T17:23:18.607Z,1.70
2022-11-06T17:26:01.995Z,1.56
2022-11-06T17:28:31.200Z,1.54
2022-11-06T17:31:24.891Z,1.35
2022-11-06T17:33:53.622Z,1.02
2022-11-06T17:36:26.297Z,1.44
2022-11-06T17:38:57.915Z,2.12
2022-11-06T17:41:31.284Z,1.44
2022-11-06T17:44:01.601Z,1.89
2022-11-06T17:46:33.181Z,1.46
2022-11-06T17:49:03.293Z,2.02
2022-11-06T17:55:31.607Z,1.51
2022-11-06T17:58:00.594Z,0.97
2022-11-06T18:04:47.305Z,1.62
2022-11-06T18:07:16.348Z,1.64
2022-11-06T18:10:18.780Z,1.71
2022-11-06T18:12:59.591Z,1.44
2022-11-06T18:15:31.128Z,1.82
2022-11-06T18:18:00.520Z,2.01
2022-11-06T18:20:29.660Z,1.76
2022-11-06T18:22:58.644Z,1.27
2022-11-06T18:25:27.568Z,2.04
2022-11-06T18:28:03.307Z,1.26
2022-11-06T18:30:35.943Z,1.36
2022-11-06T18:33:07.046Z,1.81
2022-11-06T18:35:38.282Z,1.42
2022-11-06T18:38:07.445Z,1.54
2022-11-06T18:40:39.142Z,1.36
2022-11-06T18:43:09.614Z,2.16
2022-11-06T18:46:08.174Z,2.45
2022-11-06T18:48:38.199Z,2.15
2022-11-06T18:51:08.538Z,1.62
2022-11-06T18:53:37.865Z,1.87
2022-11-06T18:56:09.729Z,2.27
2022-11-06T18:58:41.031Z,1.89
2022-11-06T19:01:12.154Z,1.80
2022-11-06T19:03:41.727Z,2.29
2022-11-06T19:06:12.535Z,1.78
2022-11-06T19:08:43.057Z,2.41
2022-11-06T19:11:15.131Z,1.88
2022-11-06T19:13:48.251Z,2.02
2022-11-06T19:16:20.391Z,1.95
2022-11-06T19:21:56.885Z,1.95
2022-11-06T19:24:29.246Z,1.60
2022-11-06T19:26:58.174Z,2.03
2022-11-06T19:29:28.648Z,2.05
2022-11-06T19:32:02.005Z,2.17
2022-11-06T19:34:45.697Z,1.76
2022-11-06T19:37:14.522Z,2.40
2022-11-06T19:39:43.341Z,2.18
2022-11-06T19:42:11.822Z,2.39
2022-11-06T19:44:41.870Z,1.64
2022-11-06T19:47:10.735Z,1.41
2022-11-06T19:49:39.156Z,2.90
2022-11-06T19:52:41.898Z,2.34
2022-11-06T19:55:25.089Z,1.95
2022-11-06T19:57:45.598Z,1.76
2022-11-06T20:00:16.486Z,2.30
2022-11-06T20:02:45.198Z,1.64
2022-11-06T20:05:42.493Z,2.35
2022-11-06T20:08:11.933Z,2.31
2022-11-06T20:10:43.088Z,2.25
2022-11-06T20:13:11.968Z,2.46
2022-11-06T20:15:42.370Z,2.39
2022-11-06T20:18:11.236Z,2.24
2022-11-06T20:20:39.843Z,2.84
2022-11-06T20:23:08.363Z,1.95
2022-11-06T20:25:37.007Z,2.14
2022-11-06T20:28:05.357Z,2.85
2022-11-06T20:30:37.034Z,2.51
2022-11-06T20:33:13.302Z,2.05
2022-11-06T20:35:42.606Z,1.81
2022-11-06T20:38:20.899Z,2.12
2022-11-06T20:40:49.738Z,2.46
2022-11-06T20:43:18.248Z,2.36
2022-11-06T20:45:46.684Z,1.46
2022-11-06T20:48:16.785Z,2.47
2022-11-06T20:50:58.245Z,2.41
2022-11-06T20:53:27.250Z,1.89
2022-11-06T20:55:59.783Z,1.64
2022-11-06T20:58:29.723Z,2.39
2022-11-06T21:01:02.922Z,2.05
2022-11-06T21:03:40.899Z,2.93
2022-11-06T21:06:10.144Z,2.47
2022-11-06T21:08:40.121Z,2.15
2022-11-06T21:11:12.149Z,2.47
2022-11-06T21:13:42.205Z,2.28
2022-11-06T21:16:14.053Z,2.72
2022-11-06T21:18:45.321Z,2.48
2022-11-06T21:21:15.911Z,2.52
2022-11-06T21:23:44.751Z,1.97
2022-11-06T21:26:16.200Z,2.97
2022-11-06T21:28:47.107Z,2.13
2022-11-06T21:31:18.570Z,2.69
2022-11-06T21:33:50.326Z,2.48
2022-11-06T21:36:21.359Z,2.52
2022-11-06T21:38:50.169Z,2.11
2022-11-06T21:41:19.856Z,2.24
2022-11-06T21:43:49.426Z,1.95
2022-11-06T21:46:19.008Z,1.96
2022-11-06T21:48:51.612Z,2.33
2022-11-06T21:51:22.872Z,3.31
2022-11-06T21:54:09.573Z,2.88
2022-11-06T21:56:39.939Z,2.43
2022-11-06T21:59:13.838Z,2.34
2022-11-06T22:01:43.398Z,2.50
2022-11-06T22:04:13.975Z,2.58
2022-11-06T22:06:43.807Z,2.49
2022-11-06T22:09:16.615Z,2.54
2022-11-06T22:11:47.117Z,2.51
2022-11-06T22:14:17.365Z,2.92
2022-11-06T22:16:47.723Z,2.24
2022-11-06T22:19:18.988Z,2.23
2022-11-06T22:21:47.725Z,2.42
2022-11-06T22:24:16.540Z,2.59
2022-11-06T22:26:45.077Z,2.80
2022-11-06T22:29:15.278Z,3.25
2022-11-06T22:31:44.216Z,2.70
2022-11-06T22:34:14.069Z,2.84
2022-11-06T22:36:43.975Z,3.13
2022-11-06T22:39:13.919Z,3.94
2022-11-06T22:41:56.247Z,3.44
2022-11-06T22:44:25.089Z,3.02
2022-11-06T22:46:53.383Z,2.93
2022-11-06T22:49:21.944Z,3.12
2022-11-06T22:51:54.359Z,3.15
2022-11-06T22:54:23.132Z,3.15
2022-11-06T22:56:51.832Z,2.96
2022-11-06T22:59:21.766Z,2.35
2022-11-06T23:01:52.425Z,2.29
2022-11-06T23:04:22.217Z,2.56
2022-11-06T23:06:52.208Z,3.02
2022-11-06T23:09:20.857Z,2.68
2022-11-06T23:11:49.386Z,3.10
2022-11-06T23:14:17.889Z,3.17
2022-11-06T23:16:59.091Z,3.32
2022-11-06T23:19:31.468Z,3.43
2022-11-06T23:22:18.540Z,2.88
2022-11-06T23:24:47.592Z,3.34
2022-11-06T23:27:20.754Z,2.07
2022-11-06T23:29:49.357Z,2.62
2022-11-06T23:32:20.773Z,2.28
2022-11-06T23:34:49.403Z,2.51
2022-11-06T23:37:19.497Z,3.12
2022-11-06T23:39:48.347Z,3.47
2022-11-06T23:42:17.645Z,2.58
2022-11-06T23:45:03.738Z,2.95
2022-11-06T23:47:33.702Z,3.21
2022-11-06T23:50:05.729Z,2.55
2022-11-06T23:52:36.751Z,3.02
2022-11-06T23:55:06.339Z,2.95
2022-11-06T23:57:34.902Z,3.41
